Time;durP1;ratioP1;P1;durP2;ratioP2;P2;SDS_P1;SDS_P2;PMS_P1;PMS_P2;Temp;Humidity;BMP_temperature;BMP_pressure;BME280_temperature;BME280_humidity;BME280_pressure;Samples;Min_cycle;Max_cycle;Signal;HPM_P1;HPM_P2
2021/03/03 00:02:10;;;;;;;100.95;81.95;;;20.30;99.90;;;;;;5001051;28;20153;-38
2021/03/03 00:04:36;;;;;;;102.00;80.68;;;20.30;99.90;;;;;;5000450;28;20038;-40
2021/03/03 00:07:02;;;;;;;93.53;79.35;;;20.30;99.90;;;;;;4995091;28;20439;-40
2021/03/03 00:09:27;;;;;;;96.82;77.28;;;20.30;99.90;;;;;;4994508;28;20050;-40
2021/03/03 00:11:53;;;;;;;93.25;77.68;;;20.20;99.90;;;;;;4998505;28;20058;-40
2021/03/03 00:14:19;;;;;;;96.38;77.10;;;20.20;99.90;;;;;;5013463;28;20105;-40
2021/03/03 00:16:45;;;;;;;94.25;75.68;;;20.20;99.90;;;;;;5010536;28;20528;-40
2021/03/03 00:19:11;;;;;;;86.30;71.47;;;20.20;99.90;;;;;;5002195;28;20028;-40
2021/03/03 00:21:37;;;;;;;89.78;75.03;;;20.20;99.90;;;;;;5002948;28;20037;-39
2021/03/03 00:24:03;;;;;;;89.35;72.60;;;20.20;99.90;;;;;;5013444;28;20101;-40
2021/03/03 00:26:29;;;;;;;88.60;69.15;;;20.20;99.90;;;;;;5013495;28;20484;-40
2021/03/03 00:28:56;;;;;;;84.72;70.40;;;20.10;99.90;;;;;;4995296;28;20030;-38
2021/03/03 00:31:22;;;;;;;85.40;69.60;;;20.10;99.90;;;;;;4993911;28;20022;-38
2021/03/03 00:33:48;;;;;;;86.45;70.63;;;20.10;99.90;;;;;;5001595;28;20026;-38
2021/03/03 00:36:14;;;;;;;83.28;68.72;;;20.10;99.90;;;;;;4993578;28;20113;-38
2021/03/03 00:38:40;;;;;;;84.35;66.78;;;20.10;99.90;;;;;;4993494;28;20114;-40
2021/03/03 00:41:06;;;;;;;84.65;66.32;;;20.10;99.90;;;;;;4993574;28;20076;-39
2021/03/03 00:43:32;;;;;;;80.82;65.53;;;20.10;99.90;;;;;;5007726;28;20022;-40
2021/03/03 00:45:59;;;;;;;85.35;63.67;;;20.10;99.90;;;;;;5012448;28;20431;-40
2021/03/03 00:48:25;;;;;;;82.30;65.17;;;20.10;99.90;;;;;;5011674;28;20033;-39
2021/03/03 00:50:51;;;;;;;83.13;62.90;;;20.10;99.90;;;;;;4999391;28;20014;-38
2021/03/03 00:53:17;;;;;;;79.95;61.67;;;20.10;99.90;;;;;;5000030;28;20018;-38
2021/03/03 00:55:48;;;;;;;77.70;61.20;;;20.00;99.90;;;;;;4993119;28;20094;-38
2021/03/03 00:58:14;;;;;;;75.43;59.47;;;20.00;99.90;;;;;;5005486;28;20152;-38
2021/03/03 01:00:40;;;;;;;73.93;60.80;;;20.00;99.90;;;;;;5001618;28;20105;-38
2021/03/03 01:03:06;;;;;;;82.15;61.78;;;20.00;99.90;;;;;;4995074;28;20129;-39
2021/03/03 01:05:32;;;;;;;71.28;57.50;;;20.00;99.90;;;;;;4994281;28;20030;-39
2021/03/03 01:07:58;;;;;;;75.40;60.38;;;20.00;99.90;;;;;;5003831;28;20029;-39
2021/03/03 01:10:24;;;;;;;74.13;57.75;;;19.90;99.90;;;;;;5002283;28;20028;-39
2021/03/03 01:12:50;;;;;;;72.18;57.00;;;20.00;99.90;;;;;;5001636;28;20104;-39
2021/03/03 01:15:16;;;;;;;75.47;60.17;;;19.90;99.90;;;;;;5012957;28;20030;-38
2021/03/03 01:17:42;;;;;;;69.65;56.17;;;19.90;99.90;;;;;;5013117;28;20085;-38
2021/03/03 01:20:10;;;;;;;65.85;53.15;;;19.90;99.90;;;;;;5002182;28;20034;-40
2021/03/03 01:22:36;;;;;;;;;;;19.90;99.90;;;;;;5000655;28;20096;-39
2021/03/03 01:25:02;;;;;;;66.50;53.72;;;19.90;99.90;;;;;;5008664;28;19964;-40
2021/03/03 01:27:27;;;;;;;67.53;51.92;;;19.90;99.90;;;;;;4994906;28;20023;-39
2021/03/03 01:29:53;;;;;;;67.63;52.50;;;19.90;99.90;;;;;;4994577;28;20069;-39
2021/03/03 01:32:19;;;;;;;67.22;52.47;;;19.90;99.90;;;;;;4993335;28;20100;-39
2021/03/03 01:34:45;;;;;;;63.78;51.28;;;19.90;99.90;;;;;;5007180;28;20037;-40
2021/03/03 01:37:11;;;;;;;63.25;50.72;;;19.90;99.90;;;;;;5005588;28;20480;-39
2021/03/03 01:39:36;;;;;;;64.53;48.50;;;19.90;99.90;;;;;;4993368;28;20030;-39
2021/03/03 01:42:03;;;;;;;62.42;48.97;;;19.90;99.90;;;;;;4993020;28;20488;-39
2021/03/03 01:44:28;;;;;;;63.90;50.40;;;19.80;99.90;;;;;;4992773;28;20027;-39
2021/03/03 01:46:54;;;;;;;59.75;46.92;;;19.80;99.90;;;;;;4999279;28;20050;-39
2021/03/03 01:49:20;;;;;;;61.50;47.85;;;19.80;99.90;;;;;;5009506;28;20033;-39
2021/03/03 01:51:46;;;;;;;63.15;48.03;;;19.80;99.90;;;;;;5015085;28;20093;-38
2021/03/03 01:54:12;;;;;;;63.17;46.55;;;19.80;99.90;;;;;;5014860;28;20022;-38
2021/03/03 01:56:38;;;;;;;56.95;46.67;;;19.80;99.90;;;;;;5015628;28;20094;-39
2021/03/03 01:59:03;;;;;;;60.60;46.42;;;19.80;99.90;;;;;;5015225;28;20033;-39
2021/03/03 02:01:29;;;;;;;57.42;44.35;;;19.80;99.90;;;;;;5014179;28;20038;-39
2021/03/03 02:03:55;;;;;;;58.30;43.20;;;19.80;99.90;;;;;;5015086;28;20046;-39
2021/03/03 02:06:21;;;;;;;60.22;44.90;;;19.80;99.90;;;;;;5010264;28;20026;-39
2021/03/03 02:08:53;;;;;;;54.85;44.03;;;19.80;99.90;;;;;;5015910;28;20022;-39
2021/03/03 02:11:37;;;;;;;57.53;42.70;;;19.80;99.90;;;;;;5014960;28;20480;-38
2021/03/03 02:14:08;;;;;;;55.00;40.30;;;19.70;99.90;;;;;;4996193;28;20045;-39
2021/03/03 02:16:36;;;;;;;54.00;40.88;;;19.70;99.90;;;;;;4996452;28;20033;-39
2021/03/03 02:19:05;;;;;;;57.30;40.65;;;19.70;99.90;;;;;;4996115;28;20030;-39
2021/03/03 02:21:33;;;;;;;53.05;40.08;;;19.70;99.90;;;;;;5005369;28;20388;-39
2021/03/03 02:24:04;;;;;;;55.45;40.40;;;19.70;99.90;;;;;;4998114;28;20465;-39
2021/03/03 02:26:34;;;;;;;53.30;39.17;;;19.70;99.90;;;;;;4996070;28;20027;-39
2021/03/03 02:29:05;;;;;;;51.38;39.03;;;19.70;99.90;;;;;;5009920;28;20164;-39
2021/03/03 02:31:32;;;;;;;51.92;38.55;;;19.70;99.90;;;;;;5015406;28;20053;-39
2021/03/03 02:34:01;;;;;;;52.40;36.72;;;19.70;99.90;;;;;;5003039;28;20049;-39
2021/03/03 02:36:28;;;;;;;47.20;36.30;;;19.70;99.90;;;;;;4996952;28;20102;-39
2021/03/03 02:38:54;;;;;;;51.00;36.40;;;19.70;99.90;;;;;;5007595;28;20026;-40
2021/03/03 02:41:20;;;;;;;47.80;35.67;;;19.70;99.90;;;;;;5013819;28;20560;-40
2021/03/03 02:43:46;;;;;;;49.03;35.83;;;19.70;99.90;;;;;;5010754;28;20109;-39
2021/03/03 02:46:13;;;;;;;46.90;34.92;;;19.70;99.90;;;;;;5015179;28;20022;-39
2021/03/03 02:48:39;;;;;;;44.13;32.87;;;19.70;99.90;;;;;;5008334;28;20515;-39
2021/03/03 02:51:07;;;;;;;46.83;34.67;;;19.70;99.90;;;;;;4999770;28;20026;-39
2021/03/03 02:53:33;;;;;;;47.42;35.00;;;19.70;99.90;;;;;;5008284;28;20025;-40
2021/03/03 02:55:59;;;;;;;45.42;32.40;;;19.70;99.90;;;;;;4998086;28;20042;-39
2021/03/03 02:58:25;;;;;;;46.05;33.95;;;19.70;99.90;;;;;;5004300;28;20036;-39
2021/03/03 03:00:54;;;;;;;41.70;32.65;;;19.60;99.90;;;;;;4999202;28;20038;-39
2021/03/03 03:03:39;;;;;;;43.60;32.03;;;19.70;99.90;;;;;;5014322;28;20475;-39
2021/03/03 03:06:18;;;;;;;37.38;29.73;;;19.60;99.90;;;;;;5015050;28;20448;-39
2021/03/03 03:08:46;;;;;;;43.30;32.65;;;19.60;99.90;;;;;;5009090;28;20034;-40
2021/03/03 03:11:18;;;;;;;42.97;32.03;;;19.60;99.90;;;;;;4995152;28;20022;-40
2021/03/03 03:13:46;;;;;;;48.13;31.15;;;19.60;99.90;;;;;;5005498;28;20384;-39
2021/03/03 03:16:12;;;;;;;46.13;31.98;;;19.60;99.90;;;;;;5000556;28;20081;-39
2021/03/03 03:18:47;;;;;;;43.83;30.75;;;19.60;99.90;;;;;;5003092;28;20109;-40
2021/03/03 03:21:15;;;;;;;43.97;30.55;;;19.60;99.90;;;;;;5005459;28;20386;-39
2021/03/03 03:23:43;;;;;;;39.90;29.88;;;19.60;99.90;;;;;;5008443;28;20479;-40
2021/03/03 03:26:09;;;;;;;40.83;30.50;;;19.60;99.90;;;;;;4996382;28;20432;-40
2021/03/03 03:28:37;;;;;;;43.45;29.40;;;19.60;99.90;;;;;;5001806;28;20025;-40
2021/03/03 03:31:03;;;;;;;;;;;19.60;99.90;;;;;;5010074;28;20031;-40
2021/03/03 03:33:29;;;;;;;37.05;26.83;;;19.60;99.90;;;;;;4996580;28;19909;-40
2021/03/03 03:35:55;;;;;;;39.92;27.67;;;19.60;99.90;;;;;;5014409;28;20022;-40
2021/03/03 03:38:21;;;;;;;40.10;28.80;;;19.60;99.90;;;;;;5013716;28;20033;-40
2021/03/03 03:40:47;;;;;;;38.53;27.00;;;19.60;99.90;;;;;;4994912;28;20026;-40
2021/03/03 03:43:14;;;;;;;40.17;27.55;;;19.50;99.90;;;;;;5004708;28;20042;-39
2021/03/03 03:45:41;;;;;;;37.35;27.05;;;19.50;99.90;;;;;;5001723;28;20031;-39
2021/03/03 03:48:07;;;;;;;37.33;28.10;;;19.50;99.90;;;;;;5000702;28;20855;-39
2021/03/03 03:50:34;;;;;;;37.22;26.70;;;19.50;99.90;;;;;;5002649;28;20066;-39
2021/03/03 03:53:00;;;;;;;36.25;25.83;;;19.50;99.90;;;;;;4998689;28;20030;-39
2021/03/03 03:55:31;;;;;;;34.50;26.38;;;19.50;99.90;;;;;;5002982;28;20495;-39
2021/03/03 03:57:57;;;;;;;38.22;26.48;;;19.50;99.90;;;;;;5013141;28;20026;-39
2021/03/03 04:00:23;;;;;;;32.15;25.27;;;19.50;99.90;;;;;;5011446;28;20026;-39
2021/03/03 04:02:49;;;;;;;31.50;24.30;;;19.50;99.90;;;;;;4994573;28;20034;-39
2021/03/03 04:05:16;;;;;;;39.28;25.58;;;19.50;99.90;;;;;;4994171;28;20076;-39
2021/03/03 04:07:43;;;;;;;30.00;24.08;;;19.50;99.90;;;;;;4994552;28;20026;-39
2021/03/03 04:10:11;;;;;;;34.80;24.50;;;19.50;99.90;;;;;;4995355;28;20042;-39
2021/03/03 04:12:37;;;;;;;31.67;23.42;;;19.50;99.90;;;;;;5001112;28;20072;-40
2021/03/03 04:15:04;;;;;;;35.35;23.80;;;19.50;99.90;;;;;;5013804;28;20034;-39
2021/03/03 04:17:30;;;;;;;31.17;22.77;;;19.40;99.90;;;;;;5000540;28;20038;-40
2021/03/03 04:19:56;;;;;;;34.38;23.90;;;19.40;99.90;;;;;;4994008;28;20088;-40
2021/03/03 04:22:22;;;;;;;33.25;23.10;;;19.40;99.90;;;;;;5002758;28;20042;-39
2021/03/03 04:24:48;;;;;;;33.60;23.52;;;19.40;99.90;;;;;;5001160;28;20464;-40
2021/03/03 04:27:14;;;;;;;33.60;22.80;;;19.40;99.90;;;;;;4995561;28;20018;-40
2021/03/03 04:29:40;;;;;;;31.13;21.85;;;19.40;99.90;;;;;;5006054;28;20025;-41
2021/03/03 04:32:06;;;;;;;34.75;23.25;;;19.40;99.90;;;;;;5013328;28;20050;-41
2021/03/03 04:34:32;;;;;;;33.55;22.00;;;19.40;99.90;;;;;;4998849;28;20034;-40
2021/03/03 04:36:58;;;;;;;31.98;21.77;;;19.40;99.90;;;;;;4993926;28;20477;-40
2021/03/03 04:39:23;;;;;;;30.02;20.88;;;19.40;99.90;;;;;;5010854;28;20030;-40
2021/03/03 04:41:49;;;;;;;29.08;20.77;;;19.30;99.90;;;;;;5012607;28;20080;-40
2021/03/03 04:44:15;;;;;;;30.17;20.92;;;19.30;99.90;;;;;;5010744;28;20033;-40
2021/03/03 04:46:41;;;;;;;33.03;19.98;;;19.30;99.90;;;;;;4992486;28;20050;-40
2021/03/03 04:49:07;;;;;;;31.45;21.48;;;19.30;99.90;;;;;;4997984;28;20072;-40
2021/03/03 04:51:35;;;;;;;27.10;19.65;;;19.30;99.90;;;;;;5008329;28;20034;-40
2021/03/03 04:54:02;;;;;;;28.55;19.38;;;19.30;99.90;;;;;;5009020;28;20037;-40
2021/03/03 04:56:28;;;;;;;34.33;20.98;;;19.30;99.90;;;;;;5012829;28;20484;-40
2021/03/03 04:58:54;;;;;;;29.80;19.52;;;19.30;99.90;;;;;;5003997;28;20061;-40
2021/03/03 05:01:20;;;;;;;29.02;19.60;;;19.30;99.90;;;;;;4994640;28;20070;-40
2021/03/03 05:03:46;;;;;;;30.98;21.08;;;19.30;99.90;;;;;;4997022;28;20042;-40
2021/03/03 05:06:11;;;;;;;28.48;19.23;;;19.30;99.90;;;;;;4999259;28;20026;-40
2021/03/03 05:08:37;;;;;;;25.33;18.27;;;19.20;99.90;;;;;;5001073;28;20030;-41
2021/03/03 05:11:03;;;;;;;31.80;20.25;;;19.30;99.90;;;;;;5000362;28;20041;-40
2021/03/03 05:13:29;;;;;;;28.38;20.05;;;19.20;99.90;;;;;;5005978;28;20038;-40
2021/03/03 05:15:55;;;;;;;34.92;19.08;;;19.20;99.90;;;;;;4993185;28;20470;-40
2021/03/03 05:18:21;;;;;;;28.20;18.85;;;19.20;99.90;;;;;;4993426;28;20057;-40
2021/03/03 05:20:47;;;;;;;30.17;17.90;;;19.20;99.90;;;;;;5011316;28;20053;-40
2021/03/03 05:23:13;;;;;;;30.00;18.40;;;19.20;99.90;;;;;;5003159;28;20479;-39
2021/03/03 05:25:39;;;;;;;27.02;17.55;;;19.20;99.90;;;;;;5012361;28;20018;-38
2021/03/03 05:28:05;;;;;;;24.15;17.35;;;19.20;99.90;;;;;;4998177;28;20026;-39
2021/03/03 05:30:31;;;;;;;25.77;17.17;;;19.20;99.90;;;;;;5006217;28;20117;-39
2021/03/03 05:32:57;;;;;;;30.45;17.55;;;19.20;99.90;;;;;;4996440;28;20027;-41
2021/03/03 05:35:23;;;;;;;28.95;17.00;;;19.10;99.90;;;;;;5014146;28;20025;-42
2021/03/03 05:37:48;;;;;;;27.95;17.40;;;19.10;99.90;;;;;;5012605;28;20109;-41
2021/03/03 05:40:15;;;;;;;25.70;16.70;;;19.20;99.90;;;;;;4998363;28;20491;-39
2021/03/03 05:42:41;;;;;;;29.45;18.08;;;19.10;99.90;;;;;;4996781;28;20485;-39
2021/03/03 05:45:08;;;;;;;25.50;17.65;;;19.20;99.90;;;;;;5010204;28;20037;-39
2021/03/03 05:47:36;;;;;;;27.92;16.98;;;19.10;99.90;;;;;;5006503;28;20045;-41
2021/03/03 05:50:07;;;;;;;29.50;17.77;;;19.10;99.90;;;;;;5016307;28;20542;-41
2021/03/03 05:52:35;;;;;;;26.85;15.65;;;19.10;99.90;;;;;;5008447;28;20107;-42
2021/03/03 05:55:04;;;;;;;28.23;16.60;;;19.10;99.90;;;;;;5016006;28;20030;-40
2021/03/03 05:57:32;;;;;;;27.27;15.75;;;19.10;99.90;;;;;;5015499;28;20048;-41
2021/03/03 06:00:03;;;;;;;26.77;15.35;;;19.10;99.90;;;;;;4997495;28;20038;-41
2021/03/03 06:02:32;;;;;;;30.60;17.20;;;19.10;99.90;;;;;;4997000;28;20069;-41
2021/03/03 06:04:59;;;;;;;27.65;16.70;;;19.20;99.90;;;;;;4997214;28;20051;-41
2021/03/03 06:07:26;;;;;;;28.10;15.67;;;19.10;99.90;;;;;;4996497;28;20018;-41
2021/03/03 06:09:52;;;;;;;25.75;14.95;;;19.10;99.90;;;;;;5009557;28;20049;-38
2021/03/03 06:12:17;;;;;;;27.88;15.23;;;19.10;99.90;;;;;;5000316;28;20614;-41
2021/03/03 06:14:43;;;;;;;27.77;15.23;;;19.10;99.90;;;;;;4996262;28;20101;-41
2021/03/03 06:17:09;;;;;;;25.48;15.00;;;19.10;99.90;;;;;;4996224;28;20029;-38
2021/03/03 06:19:35;;;;;;;24.88;14.32;;;19.10;99.90;;;;;;4997003;28;20523;-40
2021/03/03 06:22:27;;;;;;;28.08;15.20;;;19.10;99.90;;;;;;5006905;28;20040;-41
2021/03/03 06:24:56;;;;;;;24.88;16.20;;;19.10;99.90;;;;;;4994877;28;20050;-40
2021/03/03 06:27:36;;;;;;;29.88;15.35;;;19.10;99.90;;;;;;4996079;28;20022;-41
2021/03/03 06:30:08;;;;;;;29.02;15.02;;;19.10;99.90;;;;;;4997797;28;20026;-40
2021/03/03 06:32:57;;;;;;;21.58;15.38;;;19.00;99.90;;;;;;5014186;28;20077;-40
2021/03/03 06:35:44;;;;;;;27.48;15.13;;;19.00;99.90;;;;;;5007363;28;20022;-40
2021/03/03 06:38:16;;;;;;;26.40;15.63;;;19.10;99.90;;;;;;5006958;28;20048;-39
2021/03/03 06:40:56;;;;;;;22.05;14.95;;;19.10;99.90;;;;;;5006352;28;20023;-40
2021/03/03 06:43:27;;;;;;;27.75;14.43;;;19.10;99.90;;;;;;4997656;28;20026;-40
2021/03/03 06:45:54;;;;;;;30.67;15.55;;;19.10;99.90;;;;;;5014408;28;20029;-40
2021/03/03 06:48:35;;;;;;;28.50;15.02;;;19.10;99.90;;;;;;5006678;28;20026;-40
2021/03/03 06:51:17;;;;;;;26.77;15.90;;;19.10;99.90;;;;;;5004273;28;20038;-40
2021/03/03 06:53:43;;;;;;;29.40;16.45;;;19.10;99.90;;;;;;5015067;28;20026;-40
2021/03/03 06:56:08;;;;;;;36.85;18.88;;;19.10;99.90;;;;;;4999365;28;20391;-39
2021/03/03 06:58:34;;;;;;;40.85;25.08;;;19.10;99.90;;;;;;5010223;28;20018;-39
2021/03/03 07:01:00;;;;;;;46.75;26.95;;;19.00;99.90;;;;;;5006854;28;20037;-39
2021/03/03 07:03:34;;;;;;;45.85;28.45;;;19.00;99.90;;;;;;4997727;28;20064;-40
2021/03/03 07:06:02;;;;;;;50.75;34.33;;;18.90;99.90;;;;;;5003080;28;20093;-40
2021/03/03 07:08:28;;;;;;;;;;;18.90;99.90;;;;;;5009883;28;20103;-40
2021/03/03 07:10:55;;;;;;;69.32;46.70;;;19.00;99.90;;;;;;5003223;28;19929;-40
2021/03/03 07:13:40;;;;;;;326.60;270.77;;;19.00;99.90;;;;;;5003571;28;20440;-39
2021/03/03 07:16:08;;;;;;;296.17;236.77;;;18.90;99.90;;;;;;4997609;28;20030;-39
2021/03/03 07:18:38;;;;;;;134.45;103.35;;;18.90;99.90;;;;;;5005013;28;20022;-39
2021/03/03 07:21:08;;;;;;;155.75;113.22;;;18.90;99.90;;;;;;5002311;28;20034;-40
2021/03/03 07:23:50;;;;;;;151.63;117.05;;;18.90;99.90;;;;;;5000308;28;20108;-40
2021/03/03 07:26:17;;;;;;;143.60;108.32;;;18.90;99.90;;;;;;5004983;28;20031;-40
2021/03/03 07:28:43;;;;;;;131.02;99.95;;;18.90;99.90;;;;;;4995851;28;20081;-40
2021/03/03 07:31:11;;;;;;;124.28;98.47;;;18.90;99.90;;;;;;4995311;28;20121;-40
2021/03/03 07:33:37;;;;;;;116.57;90.95;;;19.00;99.90;;;;;;4995748;28;20432;-40
2021/03/03 07:36:06;;;;;;;122.45;90.78;;;19.00;99.90;;;;;;5007518;28;20114;-40
2021/03/03 07:38:36;;;;;;;121.68;86.15;;;19.00;99.90;;;;;;5000076;28;20445;-41
2021/03/03 07:41:05;;;;;;;109.13;85.10;;;19.00;99.90;;;;;;5014395;28;20383;-41
2021/03/03 07:43:32;;;;;;;244.88;190.18;;;19.10;99.90;;;;;;5013762;28;20033;-41
2021/03/03 07:46:05;;;;;;;211.50;159.80;;;19.10;99.90;;;;;;5012331;28;20029;-41
2021/03/03 07:48:34;;;;;;;192.40;150.15;;;19.10;99.90;;;;;;5013708;28;20050;-40
2021/03/03 07:51:01;;;;;;;205.77;160.82;;;19.10;99.90;;;;;;5013773;28;20052;-40
2021/03/03 07:53:27;;;;;;;209.52;158.77;;;19.10;99.90;;;;;;5014102;28;20049;-40
2021/03/03 07:55:57;;;;;;;191.50;147.50;;;19.20;99.90;;;;;;5012782;28;20030;-40
2021/03/03 07:58:26;;;;;;;179.02;139.32;;;19.20;99.90;;;;;;5011834;28;20026;-41
2021/03/03 08:00:52;;;;;;;172.27;132.48;;;19.30;99.90;;;;;;5014064;28;20061;-40
2021/03/03 08:03:50;;;;;;;166.85;129.55;;;19.30;99.90;;;;;;5011219;28;20054;-41
2021/03/03 08:06:36;;;;;;;159.30;128.98;;;19.40;99.90;;;;;;4971027;28;20126;-39
2021/03/03 08:09:08;;;;;;;149.38;118.40;;;19.40;99.90;;;;;;4972913;28;20031;-39
2021/03/03 08:11:36;;;;;;;138.88;102.68;;;19.50;99.90;;;;;;4972830;28;20033;-40
2021/03/03 08:14:03;;;;;;;282.15;228.48;;;19.50;99.90;;;;;;4972874;28;20035;-39
2021/03/03 08:16:29;;;;;;;197.60;154.00;;;19.50;99.90;;;;;;4972731;28;20542;-38
2021/03/03 08:18:56;;;;;;;206.05;159.65;;;19.50;99.90;;;;;;4972866;28;20073;-39
2021/03/03 08:21:23;;;;;;;185.90;149.73;;;19.50;99.90;;;;;;4956376;28;20031;-41
2021/03/03 08:23:50;;;;;;;178.45;137.65;;;19.60;99.90;;;;;;4972732;28;20050;-38
2021/03/03 08:26:15;;;;;;;167.53;131.03;;;19.60;99.90;;;;;;4971829;28;20031;-39
2021/03/03 08:28:49;;;;;;;150.65;120.38;;;19.60;99.90;;;;;;4972671;28;20688;-39
2021/03/03 08:31:14;;;;;;;135.98;110.15;;;19.60;99.90;;;;;;4972633;28;20118;-39
2021/03/03 08:33:45;;;;;;;132.07;103.90;;;19.70;99.90;;;;;;4972570;28;20556;-38
2021/03/03 08:36:34;;;;;;;124.80;92.70;;;19.70;99.90;;;;;;4972538;28;20039;-37
2021/03/03 08:39:01;;;;;;;111.57;83.60;;;19.70;99.90;;;;;;4972377;28;20576;-35
2021/03/03 08:41:30;;;;;;;113.45;77.97;;;19.80;99.90;;;;;;4979844;28;20038;-35
2021/03/03 08:44:10;;;;;;;565.22;488.42;;;19.80;99.90;;;;;;4992476;28;20029;-35
2021/03/03 08:46:41;;;;;;;223.25;174.18;;;19.80;99.90;;;;;;4993702;28;20053;-36
2021/03/03 08:49:07;;;;;;;215.15;171.57;;;19.80;99.90;;;;;;4994243;28;20102;-38
2021/03/03 08:51:40;;;;;;;211.65;163.32;;;19.90;99.90;;;;;;4993729;28;20061;-35
2021/03/03 08:54:12;;;;;;;199.35;148.27;;;19.90;99.90;;;;;;4993760;28;20101;-36
2021/03/03 08:56:43;;;;;;;174.57;132.13;;;20.00;99.90;;;;;;4993764;28;20516;-37
2021/03/03 08:59:28;;;;;;;159.65;122.10;;;19.90;99.90;;;;;;4998921;28;20488;-37
2021/03/03 09:02:02;;;;;;;149.82;114.47;;;20.00;99.90;;;;;;5012479;28;20034;-36
2021/03/03 09:04:33;;;;;;;133.00;101.10;;;20.10;99.90;;;;;;5017219;28;20038;-36
2021/03/03 09:07:00;;;;;;;128.13;92.88;;;20.10;99.90;;;;;;5017251;28;20025;-37
2021/03/03 09:09:27;;;;;;;112.68;81.00;;;20.10;99.90;;;;;;5017176;28;20025;-36
2021/03/03 09:12:01;;;;;;;107.20;76.43;;;20.10;99.90;;;;;;5016974;28;20033;-37
2021/03/03 09:14:27;;;;;;;94.97;71.68;;;20.20;99.90;;;;;;5017069;28;20752;-36
2021/03/03 09:16:56;;;;;;;101.20;68.60;;;20.20;99.90;;;;;;5016642;28;20033;-40
2021/03/03 09:19:23;;;;;;;93.05;64.45;;;20.30;99.90;;;;;;5016685;28;20502;-37
2021/03/03 09:21:49;;;;;;;80.78;60.97;;;20.30;99.90;;;;;;5016491;28;20036;-36
2021/03/03 09:24:16;;;;;;;75.38;50.95;;;20.30;99.90;;;;;;5016495;28;20105;-37
2021/03/03 09:26:43;;;;;;;73.80;44.13;;;20.30;99.90;;;;;;5016529;28;20025;-37
2021/03/03 09:29:30;;;;;;;68.45;40.47;;;20.30;99.90;;;;;;5016598;28;20536;-36
2021/03/03 09:31:57;;;;;;;57.93;32.57;;;20.30;99.90;;;;;;5016754;28;20018;-37
2021/03/03 09:34:23;;;;;;;62.80;34.93;;;20.20;99.90;;;;;;5016435;28;20152;-37
2021/03/03 09:36:57;;;;;;;56.67;32.88;;;20.20;99.90;;;;;;5016657;28;20591;-35
2021/03/03 09:39:24;;;;;;;50.78;33.42;;;20.20;99.90;;;;;;5016668;28;20408;-36
2021/03/03 09:41:55;;;;;;;69.13;33.13;;;20.20;99.90;;;;;;5016611;28;20384;-36
2021/03/03 09:44:20;;;;;;;60.08;33.10;;;20.30;99.90;;;;;;5016605;28;20061;-36
2021/03/03 09:46:53;;;;;;;277.65;222.82;;;20.30;99.90;;;;;;5015095;28;20041;-36
2021/03/03 09:49:30;;;;;;;122.57;86.15;;;20.30;99.90;;;;;;5016507;28;20026;-36
2021/03/03 09:51:58;;;;;;;346.02;266.10;;;20.30;99.90;;;;;;5016036;28;20530;-36
2021/03/03 09:54:28;;;;;;;192.48;137.68;;;20.40;99.90;;;;;;5015973;28;20170;-36
2021/03/03 09:56:54;;;;;;;162.80;114.55;;;20.40;99.90;;;;;;5016167;28;20026;-36
2021/03/03 09:59:20;;;;;;;147.63;101.25;;;20.40;99.90;;;;;;5016269;28;20025;-37
2021/03/03 10:01:46;;;;;;;148.43;90.43;;;20.40;99.90;;;;;;5016115;28;20034;-37
2021/03/03 10:04:14;;;;;;;115.43;80.32;;;20.50;99.90;;;;;;5015685;28;20037;-36
2021/03/03 10:06:40;;;;;;;117.10;78.45;;;20.50;99.90;;;;;;5016074;28;20060;-37
2021/03/03 10:09:06;;;;;;;88.35;59.10;;;20.50;99.90;;;;;;5015245;28;20026;-37
2021/03/03 10:11:32;;;;;;;81.50;50.97;;;20.50;99.90;;;;;;5013852;28;20018;-36
2021/03/03 10:14:08;;;;;;;86.65;50.80;;;20.50;99.90;;;;;;5005704;28;20116;-37
2021/03/03 10:16:35;;;;;;;71.47;47.20;;;20.50;99.90;;;;;;4996222;28;20030;-36
2021/03/03 10:19:05;;;;;;;81.60;49.38;;;20.50;99.90;;;;;;4995962;28;20034;-37
2021/03/03 10:21:32;;;;;;;188.70;138.93;;;20.50;99.90;;;;;;4996168;28;20034;-35
2021/03/03 10:23:58;;;;;;;189.00;136.27;;;20.50;99.90;;;;;;4995782;28;20026;-37
2021/03/03 10:26:40;;;;;;;148.65;99.30;;;20.50;99.90;;;;;;4995946;28;20032;-37
2021/03/03 10:29:07;;;;;;;106.95;68.07;;;20.60;99.90;;;;;;4995786;28;20354;-35
2021/03/03 10:31:34;;;;;;;113.68;69.10;;;20.60;99.90;;;;;;4995884;28;20018;-35
2021/03/03 10:34:12;;;;;;;181.95;131.50;;;20.60;99.90;;;;;;4995637;28;20077;-35
2021/03/03 10:36:41;;;;;;;145.45;90.90;;;20.60;99.90;;;;;;5010591;28;20027;-37
2021/03/03 10:39:09;;;;;;;83.50;47.95;;;20.70;99.90;;;;;;4995877;28;20033;-36
2021/03/03 10:41:36;;;;;;;68.47;31.25;;;20.70;99.90;;;;;;4995888;28;20029;-36
2021/03/03 10:44:06;;;;;;;48.40;20.63;;;20.70;99.90;;;;;;4995656;28;20105;-35
2021/03/03 10:46:42;;;;;;;58.00;18.10;;;20.70;99.90;;;;;;4995624;28;20472;-36
2021/03/03 10:49:19;;;;;;;37.05;17.02;;;20.80;99.90;;;;;;4995614;28;20027;-36
2021/03/03 10:51:45;;;;;;;49.70;18.77;;;20.80;99.90;;;;;;4995572;28;20019;-38
2021/03/03 10:54:11;;;;;;;51.92;18.67;;;20.90;99.90;;;;;;4995495;28;20392;-36
2021/03/03 10:56:43;;;;;;;52.85;16.35;;;20.90;99.90;;;;;;4995407;28;20121;-35
2021/03/03 10:59:24;;;;;;;44.53;15.20;;;20.90;99.90;;;;;;4995470;28;20360;-36
2021/03/03 11:01:56;;;;;;;135.75;92.15;;;21.00;99.90;;;;;;4995306;28;20031;-36
2021/03/03 11:04:21;;;;;;;90.80;52.10;;;21.00;99.90;;;;;;4995052;28;20074;-36
2021/03/03 11:06:47;;;;;;;52.78;21.77;;;21.00;99.90;;;;;;4995208;28;20056;-36
2021/03/03 11:09:16;;;;;;;43.75;17.05;;;21.10;99.90;;;;;;4995179;28;20038;-36
2021/03/03 11:11:53;;;;;;;48.45;17.73;;;21.20;99.90;;;;;;4995136;28;20367;-36
2021/03/03 11:14:19;;;;;;;39.38;15.40;;;21.20;99.90;;;;;;4995201;28;20026;-36
2021/03/03 11:16:46;;;;;;;97.30;58.63;;;21.20;99.90;;;;;;4993969;28;20042;-35
2021/03/03 11:19:11;;;;;;;130.33;88.77;;;21.20;99.90;;;;;;4995123;28;20089;-36
2021/03/03 11:21:38;;;;;;;111.35;70.57;;;21.20;99.90;;;;;;4994708;28;20030;-38
2021/03/03 11:24:04;;;;;;;79.53;47.67;;;21.10;99.90;;;;;;4994965;28;20034;-37
2021/03/03 11:26:30;;;;;;;73.55;38.53;;;21.10;99.90;;;;;;4994928;28;20019;-37
2021/03/03 11:28:56;;;;;;;66.22;34.75;;;21.10;99.90;;;;;;4994875;28;20489;-35
2021/03/03 11:31:22;;;;;;;64.97;31.55;;;21.20;99.90;;;;;;4994833;28;20050;-35
2021/03/03 11:33:49;;;;;;;63.35;27.23;;;21.20;99.90;;;;;;4994631;28;20030;-35
2021/03/03 11:36:15;;;;;;;64.45;26.67;;;21.30;99.90;;;;;;4994898;28;20022;-35
2021/03/03 11:38:41;;;;;;;68.85;25.10;;;21.40;99.90;;;;;;4994665;28;20107;-36
2021/03/03 11:41:07;;;;;;;64.50;22.13;;;21.50;99.90;;;;;;4994715;28;20031;-36
2021/03/03 11:43:32;;;;;;;60.42;21.80;;;21.60;99.90;;;;;;4994581;28;20488;-36
2021/03/03 11:45:58;;;;;;;69.90;21.85;;;21.60;99.90;;;;;;4994827;28;20026;-36
2021/03/03 11:48:24;;;;;;;56.35;18.85;;;21.70;99.90;;;;;;4994519;28;20034;-36
2021/03/03 11:50:50;;;;;;;61.80;18.77;;;21.80;99.90;;;;;;4994656;28;20033;-35
2021/03/03 11:53:16;;;;;;;63.70;18.38;;;21.90;99.90;;;;;;4994384;28;20026;-35
2021/03/03 11:55:42;;;;;;;56.58;17.85;;;21.90;99.90;;;;;;4994862;28;20035;-36
2021/03/03 11:58:07;;;;;;;52.60;17.13;;;22.00;99.90;;;;;;4994497;28;20023;-36
2021/03/03 12:00:33;;;;;;;57.25;17.88;;;22.00;99.90;;;;;;4994829;28;20101;-36
2021/03/03 12:02:59;;;;;;;41.20;16.30;;;22.10;99.90;;;;;;4995340;28;20135;-38
2021/03/03 12:05:25;;;;;;;43.95;15.68;;;22.10;99.90;;;;;;4994072;28;20049;-38
2021/03/03 12:07:51;;;;;;;43.45;15.95;;;22.10;99.90;;;;;;4994268;28;20084;-35
2021/03/03 12:10:17;;;;;;;38.00;16.08;;;22.20;99.90;;;;;;4992703;28;20109;-35
2021/03/03 12:12:43;;;;;;;39.40;14.65;;;22.20;99.90;;;;;;4994244;28;20023;-38
2021/03/03 12:15:10;;;;;;;43.50;16.42;;;22.30;99.90;;;;;;4992835;28;20100;-38
2021/03/03 12:17:36;;;;;;;42.13;16.98;;;22.30;99.90;;;;;;4994094;28;20543;-37
2021/03/03 12:20:07;;;;;;;40.90;16.58;;;22.30;99.90;;;;;;4992645;28;20030;-38
2021/03/03 12:22:33;;;;;;;31.98;15.05;;;22.30;99.90;;;;;;4993955;28;20022;-36
2021/03/03 12:25:00;;;;;;;42.50;17.48;;;22.30;99.90;;;;;;4993745;28;20022;-38
2021/03/03 12:27:26;;;;;;;48.55;16.77;;;22.30;99.90;;;;;;4992803;28;20102;-38
2021/03/03 12:29:51;;;;;;;49.38;18.52;;;22.20;99.90;;;;;;4994063;28;20153;-36